createdAt,value
2022-11-21T00:00:27.953Z,74.30
2022-11-21T00:05:31.644Z,58.30
2022-11-21T00:10:33.655Z,54.80
2022-11-21T00:15:35.961Z,58.80
2022-11-21T00:20:38.422Z,61.20
2022-11-21T00:25:40.267Z,60.20
2022-11-21T00:30:42.027Z,55.60
2022-11-21T00:35:43.858Z,58.00
2022-11-21T00:40:45.823Z,54.30
2022-11-21T00:45:47.697Z,55.80
2022-11-21T00:50:50.118Z,59.50
2022-11-21T00:55:51.873Z,55.80
2022-11-21T01:01:03.316Z,60.70
2022-11-21T01:06:11.104Z,71.20
2022-11-21T01:11:15.825Z,59.80
2022-11-21T01:16:20.584Z,77.10
2022-11-21T01:21:27.848Z,65.90
2022-11-21T01:26:31.831Z,73.00
2022-11-21T01:31:33.964Z,70.10
2022-11-21T01:36:35.791Z,70.90
2022-11-21T01:41:40.472Z,67.80
2022-11-21T01:46:42.322Z,83.40
2022-11-21T01:51:54.185Z,48.50
2022-11-21T01:57:08.456Z,74.20
2022-11-21T02:02:13.630Z,77.80
2022-11-21T02:07:19.718Z,83.60
2022-11-21T02:12:44.850Z,79.20
2022-11-21T02:17:46.971Z,85.20
2022-11-21T02:23:00.412Z,84.80
2022-11-21T02:28:05.880Z,81.50
2022-11-21T02:33:08.232Z,78.30
2022-11-21T02:38:38.441Z,80.20
2022-11-21T02:48:48.659Z,95.50
2022-11-21T02:53:50.734Z,81.20
2022-11-21T02:58:52.622Z,83.10
2022-11-21T03:03:54.435Z,87.40
2022-11-21T03:08:56.293Z,86.00
2022-11-21T03:13:58.194Z,80.00
2022-11-21T03:19:00.028Z,85.40
2022-11-21T03:24:01.857Z,80.80
2022-11-21T03:29:03.848Z,75.60
2022-11-21T03:34:05.748Z,82.40
2022-11-21T03:39:08.548Z,90.60
2022-11-21T03:44:12.437Z,82.40
2022-11-21T03:49:16.904Z,85.40
2022-11-21T03:54:18.775Z,85.10
2022-11-21T03:59:20.602Z,77.60
2022-11-21T04:04:22.469Z,69.00
2022-11-21T04:09:24.286Z,76.60
2022-11-21T04:14:26.437Z,76.50
2022-11-21T04:19:28.925Z,68.30
2022-11-21T04:24:30.971Z,68.40
2022-11-21T04:29:33.043Z,74.10
2022-11-21T04:34:34.933Z,68.00
2022-11-21T04:39:36.798Z,76.50
2022-11-21T04:44:38.623Z,85.80
2022-11-21T04:49:40.526Z,75.70
2022-11-21T04:54:42.473Z,82.30
2022-11-21T04:59:44.313Z,85.90
2022-11-21T05:04:46.166Z,82.20
2022-11-21T05:09:48.010Z,83.20
2022-11-21T05:14:49.962Z,86.60
2022-11-21T05:19:51.819Z,50.40
2022-11-21T05:24:53.797Z,57.20
2022-11-21T05:29:55.694Z,54.80
2022-11-21T05:34:57.474Z,67.00
2022-11-21T05:39:59.423Z,57.10
2022-11-21T05:45:01.273Z,70.30
2022-11-21T05:50:03.401Z,69.50
2022-11-21T05:55:05.618Z,75.20
2022-11-21T06:00:08.470Z,82.40
2022-11-21T06:05:10.285Z,78.20
2022-11-21T06:10:12.122Z,60.70
2022-11-21T06:15:13.967Z,47.30
2022-11-21T06:20:15.839Z,60.90
2022-11-21T06:25:17.801Z,56.20
2022-11-21T06:30:22.312Z,64.30
2022-11-21T06:35:24.303Z,60.30
2022-11-21T06:40:26.198Z,59.40
2022-11-21T06:45:28.128Z,60.10
2022-11-21T06:50:31.289Z,57.10
2022-11-21T06:55:33.100Z,90.60
2022-11-21T07:00:35.018Z,76.80
2022-11-21T07:05:36.833Z,63.30
2022-11-21T07:10:38.727Z,55.30
2022-11-21T07:15:40.591Z,62.80
2022-11-21T07:20:42.503Z,64.40
2022-11-21T07:25:44.417Z,43.70
2022-11-21T07:30:46.298Z,62.60
2022-11-21T07:35:48.103Z,62.00
2022-11-21T07:40:49.955Z,55.50
2022-11-21T07:45:51.837Z,51.60
2022-11-21T07:50:53.712Z,44.90
2022-11-21T07:55:58.749Z,42.80
2022-11-21T08:01:05.528Z,36.60
2022-11-21T08:06:07.459Z,39.90
2022-11-21T08:11:09.358Z,42.10
2022-11-21T08:16:11.286Z,37.50
2022-11-21T08:21:18.491Z,37.30
2022-11-21T08:26:21.691Z,37.30
2022-11-21T08:31:23.626Z,36.50
2022-11-21T08:36:25.461Z,36.40
2022-11-21T08:41:46.136Z,38.20
2022-11-21T08:46:47.933Z,36.60
2022-11-21T08:51:50.160Z,44.70
2022-11-21T08:56:52.204Z,41.60
2022-11-21T09:01:54.114Z,46.40
2022-11-21T09:06:55.972Z,37.70
2022-11-21T09:11:57.803Z,38.70
2022-11-21T09:17:18.591Z,35.80
2022-11-21T09:22:20.449Z,44.50
2022-11-21T09:27:22.283Z,41.00
2022-11-21T09:32:24.450Z,37.20
2022-11-21T09:37:26.361Z,36.70
2022-11-21T09:42:44.236Z,30.90
2022-11-21T09:47:49.433Z,25.40
2022-11-21T09:52:57.855Z,24.80
2022-11-21T09:58:02.917Z,21.00
2022-11-21T10:03:04.845Z,22.40
2022-11-21T10:08:22.388Z,17.10
2022-11-21T10:13:26.860Z,17.90
2022-11-21T10:18:51.575Z,15.00
2022-11-21T10:24:18.724Z,18.40
2022-11-21T10:29:34.826Z,16.10
2022-11-21T10:34:39.063Z,12.60
2022-11-21T10:39:48.431Z,10.70
2022-11-21T10:45:09.571Z,12.40
2022-11-21T10:50:39.392Z,11.30
2022-11-21T10:55:59.059Z,11.20
2022-11-21T11:01:00.955Z,12.40
2022-11-21T11:06:02.938Z,10.10
2022-11-21T11:11:08.088Z,9.10
2022-11-21T11:16:09.918Z,9.60
2022-11-21T11:21:16.233Z,8.80
2022-11-21T11:26:25.997Z,9.70
2022-11-21T11:31:40.427Z,9.10
2022-11-21T11:36:54.701Z,9.10
2022-11-21T11:42:36.880Z,11.30
2022-11-21T11:47:54.437Z,8.50
2022-11-21T11:53:06.007Z,9.80
2022-11-21T11:58:22.075Z,12.70
2022-11-21T12:03:58.106Z,9.20
2022-11-21T12:09:13.812Z,10.80
2022-11-21T12:15:00.648Z,8.40
2022-11-21T12:20:12.883Z,13.00
2022-11-21T12:25:16.967Z,9.90
2022-11-21T12:30:37.180Z,7.30
2022-11-21T12:41:26.927Z,8.50
2022-11-21T12:46:45.517Z,8.60
2022-11-21T12:52:38.619Z,9.10
2022-11-21T12:58:05.363Z,8.00
2022-11-21T13:03:07.151Z,17.70
2022-11-21T13:08:22.854Z,9.80
2022-11-21T13:13:34.514Z,21.20
2022-11-21T13:18:49.069Z,9.40
2022-11-21T13:23:50.911Z,8.40
2022-11-21T13:29:12.626Z,10.20
2022-11-21T13:34:36.571Z,11.80
2022-11-21T13:39:38.863Z,12.40
2022-11-21T13:44:41.538Z,13.20
2022-11-21T13:49:43.360Z,13.10
2022-11-21T13:54:55.217Z,11.20
2022-11-21T14:00:24.636Z,9.00
2022-11-21T14:06:19.728Z,12.00
2022-11-21T14:11:34.701Z,11.90
2022-11-21T14:16:48.516Z,13.30
2022-11-21T14:21:50.512Z,12.70
2022-11-21T14:26:54.196Z,13.10
2022-11-21T14:31:56.098Z,15.50
2022-11-21T14:37:00.094Z,13.70
2022-11-21T14:42:12.105Z,14.50
2022-11-21T14:47:25.781Z,15.50
2022-11-21T14:52:31.760Z,17.20
2022-11-21T14:57:38.957Z,19.90
2022-11-21T15:02:40.909Z,11.30
2022-11-21T15:07:48.215Z,11.10
2022-11-21T15:13:16.260Z,12.60
2022-11-21T15:18:29.535Z,13.90
2022-11-21T15:23:38.450Z,15.30
2022-11-21T15:28:55.207Z,15.10
2022-11-21T15:34:34.832Z,23.40
2022-11-21T15:39:27.244Z,18.10
2022-11-21T15:44:29.414Z,20.90
2022-11-21T15:49:33.207Z,24.20
2022-11-21T15:54:35.594Z,20.90
2022-11-21T15:59:37.595Z,17.00
2022-11-21T16:04:39.509Z,17.70
2022-11-21T16:09:43.305Z,68.00
2022-11-21T16:14:45.252Z,22.00
2022-11-21T16:19:47.163Z,20.80
2022-11-21T16:24:49.548Z,22.80
2022-11-21T16:29:51.512Z,25.60
2022-11-21T16:34:54.775Z,26.00
2022-11-21T16:39:56.659Z,26.70
2022-11-21T16:44:58.651Z,30.30
2022-11-21T16:50:00.541Z,32.40
2022-11-21T16:55:02.584Z,24.50
2022-11-21T17:00:04.985Z,16.00
2022-11-21T17:05:07.342Z,15.80
2022-11-21T17:10:09.538Z,13.10
2022-11-21T17:15:14.376Z,13.00
2022-11-21T17:20:16.246Z,14.00
2022-11-21T17:25:18.102Z,15.60
2022-11-21T17:30:19.944Z,16.60
2022-11-21T17:35:21.917Z,20.80
2022-11-21T17:40:23.760Z,16.70
2022-11-21T17:45:25.694Z,18.60
2022-11-21T17:50:27.708Z,21.40
2022-11-21T17:55:29.613Z,25.10
2022-11-21T18:00:31.378Z,29.30
2022-11-21T18:05:33.569Z,29.40
2022-11-21T18:10:43.363Z,33.20
2022-11-21T18:15:46.039Z,28.30
2022-11-21T18:20:47.928Z,38.60
2022-11-21T18:25:49.810Z,42.50
2022-11-21T18:30:51.712Z,39.80
2022-11-21T18:35:53.532Z,38.10
2022-11-21T18:40:55.396Z,36.30
2022-11-21T18:46:05.968Z,32.00
2022-11-21T18:51:16.417Z,38.40
2022-11-21T18:56:18.768Z,36.90
2022-11-21T19:01:26.098Z,40.20
2022-11-21T19:06:28.926Z,30.20
2022-11-21T19:11:30.937Z,30.10
2022-11-21T19:16:34.630Z,22.20
2022-11-21T19:21:38.281Z,26.60
2022-11-21T19:26:40.935Z,16.90
2022-11-21T19:31:45.590Z,19.20
2022-11-21T19:36:48.044Z,16.90
2022-11-21T19:41:50.195Z,17.80
2022-11-21T19:46:52.066Z,18.70
2022-11-21T19:51:53.932Z,23.40
2022-11-21T19:56:55.877Z,26.70
2022-11-21T20:01:57.937Z,27.10
2022-11-21T20:07:04.823Z,30.40
2022-11-21T20:12:09.387Z,29.60
2022-11-21T20:17:11.155Z,31.40
2022-11-21T20:22:13.048Z,26.40
2022-11-21T20:27:15.008Z,32.10
2022-11-21T20:32:16.740Z,32.80
2022-11-21T20:37:18.572Z,40.00
2022-11-21T20:42:20.411Z,35.40
2022-11-21T20:47:22.192Z,30.70
2022-11-21T20:57:45.832Z,31.50
2022-11-21T21:02:47.730Z,29.30
2022-11-21T21:07:49.587Z,27.50
2022-11-21T21:12:51.553Z,32.10
2022-11-21T21:17:53.425Z,32.20
2022-11-21T21:22:55.759Z,33.60
2022-11-21T21:27:57.639Z,31.50
2022-11-21T21:32:59.716Z,35.00
2022-11-21T21:38:04.867Z,35.30
2022-11-21T21:43:10.594Z,51.30
2022-11-21T21:48:12.404Z,58.10
2022-11-21T21:53:14.227Z,52.30
2022-11-21T21:58:16.019Z,43.40
2022-11-21T22:03:17.846Z,49.20
2022-11-21T22:08:19.825Z,41.50
2022-11-21T22:13:26.025Z,40.10
2022-11-21T22:18:28.871Z,41.60
2022-11-21T22:23:33.705Z,68.60
2022-11-21T22:28:35.691Z,63.90
2022-11-21T22:33:38.749Z,72.00
2022-11-21T22:38:41.107Z,80.30
2022-11-21T22:43:44.110Z,78.10
2022-11-21T22:48:51.424Z,86.00
2022-11-21T22:53:53.319Z,87.60
2022-11-21T22:58:56.100Z,71.10
2022-11-21T23:03:57.964Z,79.30
2022-11-21T23:08:59.852Z,87.10
2022-11-21T23:14:01.945Z,89.20
2022-11-21T23:19:03.858Z,96.90
2022-11-21T23:24:06.076Z,96.80
2022-11-21T23:29:09.106Z,82.30
2022-11-21T23:34:11.340Z,81.00
2022-11-21T23:39:13.147Z,83.20
2022-11-21T23:44:14.958Z,77.30
2022-11-21T23:49:17.090Z,90.80
2022-11-21T23:54:18.906Z,88.50
2022-11-21T23:59:20.785Z,95.30
